Time;durP1;ratioP1;P1;durP2;ratioP2;P2;SDS_P1;SDS_P2;PMS_P1;PMS_P2;Temp;Humidity;BMP_temperature;BMP_pressure;BME280_temperature;BME280_humidity;BME280_pressure;Samples;Min_cycle;Max_cycle;Signal;HPM_P1;HPM_P2
2021/01/09 14:29:44;;;;;;;17.63;10.70;;;3.30;99.90;;;;;;5309320;22;20053;-55
2021/01/09 14:32:10;;;;;;;18.43;10.43;;;3.40;99.90;;;;;;5105264;28;20027;-52
2021/01/09 14:34:36;;;;;;;21.17;10.93;;;3.30;99.90;;;;;;5112521;28;20081;-55
2021/01/09 14:37:02;;;;;;;21.10;10.95;;;3.30;99.90;;;;;;5112772;28;20431;-54
2021/01/09 14:39:28;;;;;;;21.37;10.93;;;3.20;99.90;;;;;;5104712;28;20072;-55
2021/01/09 14:41:55;;;;;;;18.63;10.33;;;3.30;99.90;;;;;;5108258;28;20099;-56
2021/01/09 14:44:20;;;;;;;16.80;10.43;;;3.40;99.90;;;;;;5110793;27;20031;-56
2021/01/09 14:46:46;;;;;;;17.07;9.07;;;3.40;99.90;;;;;;5104541;28;20039;-57
2021/01/09 14:49:12;;;;;;;19.83;9.73;;;3.40;99.90;;;;;;5105506;28;20049;-57
2021/01/09 14:51:38;;;;;;;22.80;10.45;;;3.40;99.90;;;;;;5107291;28;20345;-57
2021/01/09 14:54:04;;;;;;;20.93;11.90;;;3.40;99.90;;;;;;5104902;28;20030;-57
2021/01/09 14:56:30;;;;;;;16.13;8.87;;;3.30;99.90;;;;;;5107005;28;20437;-57
2021/01/09 14:58:56;;;;;;;17.33;10.33;;;3.30;99.90;;;;;;5106789;28;20085;-58
2021/01/09 15:01:23;;;;;;;21.50;10.87;;;3.30;99.90;;;;;;5106381;28;20346;-58
2021/01/09 15:03:49;;;;;;;19.60;10.53;;;3.30;99.90;;;;;;5086959;28;20035;-57
2021/01/09 15:06:17;;;;;;;16.00;9.83;;;3.20;99.90;;;;;;5102831;28;20023;-58
2021/01/09 15:08:42;;;;;;;20.17;9.97;;;3.20;99.90;;;;;;5108174;28;20114;-58
2021/01/09 15:11:08;;;;;;;16.67;11.37;;;3.10;99.90;;;;;;5107463;28;20102;-58
2021/01/09 15:13:34;;;;;;;18.25;9.75;;;3.20;99.90;;;;;;5103745;28;20032;-58
2021/01/09 15:16:01;;;;;;;16.47;9.70;;;3.30;99.90;;;;;;5107850;28;20020;-58
2021/01/09 15:18:53;;;;;;;20.77;11.60;;;3.20;99.90;;;;;;5106051;28;20024;-56
2021/01/09 15:21:18;;;;;;;16.83;8.47;;;3.30;99.90;;;;;;5102915;28;20506;-57
2021/01/09 15:23:44;;;;;;;20.40;10.20;;;3.20;99.90;;;;;;5103103;28;20035;-57
2021/01/09 15:26:09;;;;;;;16.40;10.80;;;3.20;99.90;;;;;;5103701;28;20321;-57
2021/01/09 15:28:35;;;;;;;18.73;10.80;;;3.20;99.90;;;;;;5106084;28;20031;-56
2021/01/09 15:31:01;;;;;;;21.87;11.03;;;3.20;99.90;;;;;;5105889;27;20040;-57
2021/01/09 15:33:26;;;;;;;17.80;9.50;;;3.20;99.90;;;;;;5109865;27;20076;-57
2021/01/09 15:35:52;;;;;;;18.83;10.37;;;3.00;99.90;;;;;;5111159;27;20055;-57
2021/01/09 15:38:17;;;;;;;19.30;11.97;;;3.00;99.90;;;;;;5107174;28;20028;-57
2021/01/09 15:40:43;;;;;;;19.40;9.10;;;3.00;99.90;;;;;;5105913;28;19915;-57
2021/01/09 15:43:09;;;;;;;18.87;11.67;;;3.10;99.90;;;;;;5116681;27;20037;-57
2021/01/09 15:45:34;;;;;;;19.15;11.15;;;3.00;99.90;;;;;;5109177;27;20112;-57
2021/01/09 15:48:00;;;;;;;20.60;10.73;;;3.00;99.90;;;;;;5086831;28;20038;-57
2021/01/09 15:50:26;;;;;;;23.23;12.57;;;3.00;99.90;;;;;;5108195;27;20735;-57
2021/01/09 15:52:51;;;;;;;20.33;11.17;;;3.00;99.90;;;;;;5107560;28;20015;-57
2021/01/09 15:55:17;;;;;;;21.10;10.80;;;3.00;99.90;;;;;;5110099;27;20476;-57
2021/01/09 15:57:42;;;;;;;20.33;11.00;;;2.90;99.90;;;;;;5109257;27;20036;-57
2021/01/09 16:00:09;;;;;;;16.07;10.30;;;2.90;99.90;;;;;;5104609;28;20103;-58
2021/01/09 16:02:34;;;;;;;23.10;12.00;;;2.90;99.90;;;;;;5106922;28;20042;-57
2021/01/09 16:05:00;;;;;;;22.10;11.77;;;2.90;99.90;;;;;;5087680;28;19916;-56
2021/01/09 16:07:26;;;;;;;23.63;13.30;;;2.80;99.90;;;;;;5111461;27;20078;-57
2021/01/09 16:09:51;;;;;;;26.37;12.93;;;2.80;99.90;;;;;;5106877;27;20380;-58
2021/01/09 16:12:17;;;;;;;25.37;13.07;;;2.90;99.90;;;;;;5087641;28;19912;-58
2021/01/09 16:14:42;;;;;;;26.60;12.65;;;3.00;99.90;;;;;;5106146;28;20327;-58
2021/01/09 16:17:08;;;;;;;23.50;13.00;;;3.00;99.90;;;;;;5104201;28;20050;-58
2021/01/09 16:19:34;;;;;;;27.70;14.07;;;3.00;99.90;;;;;;5105549;28;20020;-58
2021/01/09 16:22:00;;;;;;;27.70;14.03;;;3.00;99.90;;;;;;5104973;28;19944;-58
2021/01/09 16:24:26;;;;;;;25.07;14.03;;;3.00;99.90;;;;;;5103206;28;20063;-58
2021/01/09 16:26:53;;;;;;;22.87;13.13;;;3.10;99.90;;;;;;5104639;28;19920;-58
2021/01/09 16:29:19;;;;;;;26.57;13.80;;;3.10;99.90;;;;;;5104059;28;20138;-58
2021/01/09 16:31:45;;;;;;;23.30;12.40;;;3.10;99.90;;;;;;5099362;28;20462;-58
2021/01/09 16:34:13;;;;;;;25.87;13.67;;;3.10;99.90;;;;;;5098774;28;20408;-57
2021/01/09 16:36:46;;;;;;;20.13;11.90;;;3.00;99.90;;;;;;5104038;28;20070;-59
2021/01/09 16:39:12;;;;;;;22.55;12.52;;;2.90;99.90;;;;;;5102027;28;20027;-58
2021/01/09 16:41:40;;;;;;;23.80;13.10;;;2.90;99.90;;;;;;5100856;28;20042;-59
2021/01/09 16:44:06;;;;;;;24.80;13.10;;;2.90;99.90;;;;;;5104821;28;20086;-58
2021/01/09 16:46:32;;;;;;;26.73;12.63;;;2.90;99.90;;;;;;5103696;28;20054;-58
2021/01/09 16:48:57;;;;;;;24.03;12.17;;;2.70;99.90;;;;;;5101409;28;19908;-58
2021/01/09 16:51:27;;;;;;;34.93;20.60;;;2.80;99.90;;;;;;5085809;28;20026;-58
2021/01/09 16:53:53;;;;;;;30.17;17.13;;;2.70;99.90;;;;;;5103607;28;20055;-58
2021/01/09 16:56:20;;;;;;;29.43;17.80;;;2.70;99.90;;;;;;5103485;28;20034;-58
2021/01/09 16:58:46;;;;;;;25.20;15.15;;;2.70;99.90;;;;;;5101920;28;19958;-58
2021/01/09 17:01:11;;;;;;;24.77;14.03;;;2.70;99.90;;;;;;5102032;28;20047;-58
2021/01/09 17:03:38;;;;;;;28.63;17.57;;;2.70;99.90;;;;;;5102637;28;20028;-58
2021/01/09 17:06:04;;;;;;;26.60;15.10;;;2.60;99.90;;;;;;5103670;28;20111;-58
2021/01/09 17:08:30;;;;;;;24.33;14.67;;;2.60;99.90;;;;;;5100908;28;19955;-57
2021/01/09 17:10:56;;;;;;;24.93;15.70;;;2.60;99.90;;;;;;5107607;28;19947;-57
2021/01/09 17:13:22;;;;;;;25.70;14.57;;;2.60;99.90;;;;;;5103134;28;20066;-57
2021/01/09 17:15:49;;;;;;;27.80;14.83;;;2.70;99.90;;;;;;5098202;28;20488;-57
2021/01/09 17:18:15;;;;;;;26.95;13.70;;;2.60;99.90;;;;;;5102680;28;20061;-57
2021/01/09 17:20:42;;;;;;;24.60;13.43;;;2.60;99.90;;;;;;5101393;28;20386;-57
2021/01/09 17:23:08;;;;;;;22.87;13.47;;;2.60;99.90;;;;;;5103963;28;20434;-57
2021/01/09 17:25:34;;;;;;;29.47;14.60;;;2.60;99.90;;;;;;5102411;28;20398;-57
2021/01/09 17:28:00;;;;;;;26.80;14.07;;;2.60;99.90;;;;;;5083931;28;19908;-57
2021/01/09 17:30:26;;;;;;;21.47;11.40;;;2.60;99.90;;;;;;5103552;28;20036;-57
2021/01/09 17:32:52;;;;;;;22.00;13.53;;;2.70;99.90;;;;;;5102638;28;20070;-57
2021/01/09 17:35:18;;;;;;;27.70;14.05;;;2.60;99.90;;;;;;5102346;28;19962;-57
2021/01/09 17:37:48;;;;;;;26.20;15.87;;;2.60;99.90;;;;;;5103781;28;20472;-57
2021/01/09 17:40:14;;;;;;;24.75;14.85;;;2.60;99.90;;;;;;5101024;28;19907;-57
2021/01/09 17:42:40;;;;;;;28.80;15.57;;;2.60;99.90;;;;;;5100836;28;20038;-56
2021/01/09 17:45:06;;;;;;;31.45;16.35;;;2.50;99.90;;;;;;5100770;28;20040;-57
2021/01/09 17:47:33;;;;;;;26.80;15.07;;;2.50;99.90;;;;;;5102005;28;20638;-56
2021/01/09 17:49:58;;;;;;;31.33;16.70;;;2.70;99.90;;;;;;5110437;27;20667;-56
2021/01/09 17:52:24;;;;;;;27.03;15.47;;;2.70;99.90;;;;;;5103259;28;20055;-56
2021/01/09 17:54:50;;;;;;;38.97;18.60;;;2.60;99.90;;;;;;5103348;28;20036;-57
2021/01/09 17:57:15;;;;;;;29.50;15.10;;;2.60;99.90;;;;;;5102970;28;20165;-56
2021/01/09 17:59:41;;;;;;;28.35;15.25;;;2.60;99.90;;;;;;5101318;28;20103;-55
2021/01/09 18:02:07;;;;;;;29.17;15.10;;;2.50;99.90;;;;;;5102965;28;20032;-56
2021/01/09 18:04:32;;;;;;;30.27;16.30;;;2.40;99.90;;;;;;5102343;28;20035;-57
2021/01/09 18:06:58;;;;;;;34.03;16.70;;;2.40;99.90;;;;;;5102045;28;20110;-57
2021/01/09 18:09:24;;;;;;;30.67;17.43;;;2.40;99.90;;;;;;5103008;28;20030;-56
2021/01/09 18:11:49;;;;;;;35.50;16.60;;;2.40;99.90;;;;;;5105922;28;20031;-57
2021/01/09 18:14:15;;;;;;;35.73;16.57;;;2.50;99.90;;;;;;5102119;28;20026;-57
2021/01/09 18:16:42;;;;;;;32.13;16.37;;;2.50;99.90;;;;;;5082029;28;20038;-57
2021/01/09 18:19:08;;;;;;;30.37;17.03;;;2.50;99.90;;;;;;5105658;28;20028;-58
2021/01/09 18:21:36;;;;;;;32.93;17.23;;;2.60;99.90;;;;;;5098645;28;20272;-58
2021/01/09 18:24:02;;;;;;;31.30;17.63;;;2.60;99.90;;;;;;5104355;28;20028;-57
2021/01/09 18:26:35;;;;;;;27.93;14.00;;;2.50;99.90;;;;;;5106632;28;20041;-57
2021/01/09 18:29:03;;;;;;;28.38;15.00;;;2.50;99.90;;;;;;5088441;28;19915;-57
2021/01/09 18:31:29;;;;;;;26.03;14.13;;;2.50;99.90;;;;;;5103487;28;20048;-57
2021/01/09 18:33:55;;;;;;;32.33;16.40;;;2.60;99.90;;;;;;5106133;28;19965;-56
2021/01/09 18:36:23;;;;;;;30.57;16.43;;;2.40;99.90;;;;;;5083948;28;19911;-57
2021/01/09 18:38:50;;;;;;;36.10;18.47;;;2.50;99.90;;;;;;5105890;28;20260;-57
2021/01/09 18:41:16;;;;;;;36.27;18.43;;;2.50;99.90;;;;;;5102777;28;19911;-57
2021/01/09 18:43:42;;;;;;;33.40;18.30;;;2.60;99.90;;;;;;5103557;28;20011;-58
2021/01/09 18:46:10;;;;;;;36.80;16.57;;;2.50;99.90;;;;;;5102706;28;19914;-58
2021/01/09 18:48:38;;;;;;;84.50;45.75;;;2.50;99.90;;;;;;5105867;28;20256;-57
2021/01/09 18:51:06;;;;;;;52.37;28.67;;;2.50;99.90;;;;;;5105966;28;19911;-58
2021/01/09 18:53:32;;;;;;;44.93;25.13;;;2.60;99.90;;;;;;5108246;28;20012;-58
2021/01/09 18:55:57;;;;;;;48.70;26.33;;;2.60;99.90;;;;;;5112763;28;19912;-58
2021/01/09 18:58:23;;;;;;;37.60;20.27;;;2.50;99.90;;;;;;5114815;28;20485;-57
2021/01/09 19:00:50;;;;;;;36.23;20.20;;;2.40;99.90;;;;;;5114887;28;20394;-58
2021/01/09 19:03:16;;;;;;;42.67;21.07;;;2.30;99.90;;;;;;5115320;28;20055;-58
2021/01/09 19:05:42;;;;;;;46.63;22.10;;;2.20;99.90;;;;;;5115060;28;20032;-57
2021/01/09 19:08:08;;;;;;;39.47;23.30;;;2.20;99.90;;;;;;5115946;28;20357;-57
2021/01/09 19:10:34;;;;;;;39.37;20.03;;;2.20;99.90;;;;;;5117729;28;19911;-58
2021/01/09 19:13:00;;;;;;;38.57;21.10;;;2.20;99.90;;;;;;5119856;28;20051;-57
2021/01/09 19:15:26;;;;;;;45.20;21.40;;;2.20;99.90;;;;;;5119683;28;19935;-57
2021/01/09 19:17:52;;;;;;;50.80;23.90;;;2.20;99.90;;;;;;5119637;28;20035;-57
2021/01/09 19:20:19;;;;;;;55.97;26.90;;;2.20;99.90;;;;;;5118914;28;20359;-57
2021/01/09 19:22:46;;;;;;;53.80;26.90;;;2.20;99.90;;;;;;5118990;28;20345;-56
2021/01/09 19:25:12;;;;;;;77.97;32.27;;;2.20;99.90;;;;;;5118943;28;19911;-56
2021/01/09 19:27:38;;;;;;;65.55;30.75;;;2.20;99.90;;;;;;5100700;28;20296;-57
2021/01/09 19:30:06;;;;;;;49.70;27.75;;;2.30;99.90;;;;;;5119010;28;20153;-57
2021/01/09 19:32:32;;;;;;;45.77;21.80;;;2.10;99.90;;;;;;5119691;28;20434;-58
2021/01/09 19:34:58;;;;;;;46.37;24.60;;;2.10;99.90;;;;;;5119244;28;20040;-58
2021/01/09 19:37:24;;;;;;;43.97;24.83;;;2.10;99.90;;;;;;5100617;28;19908;-57
2021/01/09 19:39:50;;;;;;;44.43;22.53;;;2.10;99.90;;;;;;5117116;28;20333;-57
2021/01/09 19:42:16;;;;;;;43.60;22.90;;;2.10;99.90;;;;;;5118871;28;20032;-57
2021/01/09 19:44:41;;;;;;;45.07;21.17;;;2.20;99.90;;;;;;5100636;28;20024;-57
2021/01/09 19:47:09;;;;;;;51.17;25.20;;;2.20;99.90;;;;;;5119475;28;20023;-58
2021/01/09 19:49:35;;;;;;;54.73;29.17;;;2.20;99.90;;;;;;5119826;28;19904;-58
2021/01/09 19:52:02;;;;;;;54.60;27.53;;;2.20;99.90;;;;;;5118726;28;20065;-58
2021/01/09 19:54:28;;;;;;;57.50;28.00;;;2.20;99.90;;;;;;5119370;28;20608;-58
2021/01/09 19:56:55;;;;;;;46.77;23.53;;;2.20;99.90;;;;;;5118762;28;20032;-58
2021/01/09 19:59:21;;;;;;;51.10;24.43;;;2.20;99.90;;;;;;5118635;28;20037;-58
2021/01/09 20:01:48;;;;;;;45.50;22.67;;;2.10;99.90;;;;;;5118900;28;20267;-58
2021/01/09 20:04:14;;;;;;;47.63;23.37;;;2.10;99.90;;;;;;5119054;28;20413;-58
2021/01/09 20:06:40;;;;;;;44.50;21.77;;;2.20;99.90;;;;;;5117712;28;20256;-58
2021/01/09 20:09:05;;;;;;;50.90;24.00;;;2.00;99.90;;;;;;5118863;28;20030;-58
2021/01/09 20:11:39;;;;;;;48.87;24.57;;;2.00;99.90;;;;;;5118384;28;20027;-58
2021/01/09 20:14:05;;;;;;;44.73;24.07;;;2.00;99.90;;;;;;5119073;28;20405;-58
2021/01/09 20:16:31;;;;;;;42.33;22.60;;;2.10;99.90;;;;;;5118514;28;20061;-58
2021/01/09 20:18:57;;;;;;;51.07;25.33;;;2.10;99.90;;;;;;5118748;28;19911;-58
2021/01/09 20:21:26;;;;;;;43.67;24.00;;;2.10;99.90;;;;;;5096454;28;19908;-58
2021/01/09 20:23:55;;;;;;;51.13;25.20;;;2.10;99.90;;;;;;5098054;28;20073;-58
2021/01/09 20:26:21;;;;;;;51.25;27.00;;;2.20;99.90;;;;;;5098138;28;19969;-58
2021/01/09 20:28:46;;;;;;;55.60;26.70;;;2.20;99.90;;;;;;5098087;28;20752;-58
2021/01/09 20:31:15;;;;;;;56.43;26.47;;;2.20;99.90;;;;;;5097132;28;19920;-58
2021/01/09 20:33:41;;;;;;;62.77;31.03;;;2.20;99.90;;;;;;5097145;28;20035;-58
2021/01/09 20:36:06;;;;;;;52.13;27.70;;;2.20;99.90;;;;;;5097924;28;19908;-57
2021/01/09 20:38:32;;;;;;;56.63;28.83;;;2.30;99.90;;;;;;5097850;28;20077;-57
2021/01/09 20:40:58;;;;;;;51.03;26.83;;;2.30;99.90;;;;;;5096340;28;20283;-58
2021/01/09 20:43:23;;;;;;;53.20;26.57;;;2.30;99.90;;;;;;5097756;28;20101;-58
2021/01/09 20:45:49;;;;;;;48.70;26.03;;;2.30;99.90;;;;;;5097854;28;20119;-58
2021/01/09 20:48:15;;;;;;;50.50;26.80;;;2.30;99.90;;;;;;5097382;28;20024;-58
2021/01/09 20:50:40;;;;;;;54.30;29.43;;;2.20;99.90;;;;;;5113377;28;20031;-58
2021/01/09 20:53:08;;;;;;;58.33;29.77;;;2.20;99.90;;;;;;5118158;28;20800;-58
2021/01/09 20:55:33;;;;;;;65.53;34.63;;;2.10;99.90;;;;;;5117925;28;20429;-58
2021/01/09 20:57:59;;;;;;;43.37;22.27;;;2.00;99.90;;;;;;5117958;28;20316;-58
2021/01/09 21:00:25;;;;;;;42.30;21.93;;;2.10;99.90;;;;;;5117573;28;20350;-57
2021/01/09 21:02:50;;;;;;;41.87;20.90;;;2.10;99.90;;;;;;5117645;28;20027;-58
2021/01/09 21:05:16;;;;;;;43.80;20.40;;;2.10;99.90;;;;;;5117607;28;20112;-58
2021/01/09 21:07:42;;;;;;;36.13;17.73;;;2.10;99.90;;;;;;5092699;28;20031;-57
2021/01/09 21:10:11;;;;;;;41.07;19.67;;;2.10;99.90;;;;;;5096541;28;20020;-58
2021/01/09 21:12:37;;;;;;;43.73;20.33;;;2.00;99.90;;;;;;5096281;28;20059;-57
2021/01/09 21:15:05;;;;;;;42.93;20.17;;;2.00;99.90;;;;;;5096259;28;20032;-58
2021/01/09 21:17:31;;;;;;;63.30;30.27;;;1.90;99.90;;;;;;5115389;28;20027;-58
2021/01/09 21:19:57;;;;;;;43.53;22.20;;;1.90;99.90;;;;;;5116262;28;20278;-58
2021/01/09 21:22:22;;;;;;;45.10;21.93;;;1.80;99.90;;;;;;5117414;28;20027;-58
2021/01/09 21:24:48;;;;;;;37.43;19.50;;;1.80;99.90;;;;;;5116746;28;20080;-57
2021/01/09 21:27:14;;;;;;;44.87;18.57;;;1.80;99.90;;;;;;5117905;28;20024;-58
2021/01/09 21:29:39;;;;;;;42.10;21.70;;;1.80;99.90;;;;;;5117505;28;20069;-58
2021/01/09 21:32:05;;;;;;;43.85;20.90;;;1.90;99.90;;;;;;5116416;28;20051;-58
2021/01/09 21:34:31;;;;;;;39.93;19.10;;;1.80;99.90;;;;;;5116908;28;20032;-58
2021/01/09 21:37:00;;;;;;;34.37;17.83;;;1.80;99.90;;;;;;5117334;28;20248;-58
2021/01/09 21:39:28;;;;;;;36.77;18.10;;;1.80;99.90;;;;;;5117181;28;20275;-58
2021/01/09 21:42:00;;;;;;;44.20;20.17;;;1.90;99.90;;;;;;5116850;28;19946;-58
2021/01/09 21:44:26;;;;;;;40.67;20.03;;;1.90;99.90;;;;;;5117152;28;19915;-58
2021/01/09 21:46:52;;;;;;;43.70;21.03;;;1.90;99.90;;;;;;5117327;28;20677;-58
2021/01/09 21:49:18;;;;;;;53.53;23.93;;;1.80;99.90;;;;;;5116879;28;20260;-57
2021/01/09 21:51:45;;;;;;;48.13;23.30;;;1.80;99.90;;;;;;5117007;28;20256;-57
2021/01/09 21:54:10;;;;;;;45.50;22.50;;;1.90;99.90;;;;;;5116158;28;20028;-57
2021/01/09 21:56:42;;;;;;;45.43;20.47;;;1.90;99.90;;;;;;5116204;28;20263;-58
2021/01/09 21:59:07;;;;;;;47.75;22.70;;;1.80;99.90;;;;;;5116726;28;20072;-58
2021/01/09 22:01:34;;;;;;;49.57;23.30;;;1.70;99.90;;;;;;5116837;28;20260;-57
2021/01/09 22:04:00;;;;;;;45.00;23.17;;;1.80;99.90;;;;;;5117222;28;20023;-57
2021/01/09 22:06:36;;;;;;;45.50;22.33;;;1.80;99.90;;;;;;5117071;28;20737;-57
2021/01/09 22:09:04;;;;;;;47.37;22.50;;;1.80;99.90;;;;;;5117528;28;20026;-57
2021/01/09 22:11:43;;;;;;;46.25;23.00;;;1.80;99.90;;;;;;5117060;28;20256;-57
2021/01/09 22:14:11;;;;;;;49.27;21.73;;;1.70;99.90;;;;;;5116908;28;20444;-57
2021/01/09 22:16:37;;;;;;;44.77;21.53;;;1.70;99.90;;;;;;5116703;28;20109;-58
2021/01/09 22:19:06;;;;;;;42.93;23.10;;;1.80;99.90;;;;;;5117130;28;20279;-58
2021/01/09 22:21:46;;;;;;;43.33;22.13;;;1.80;99.90;;;;;;5098870;28;20020;-58
2021/01/09 22:24:14;;;;;;;52.23;21.43;;;1.70;99.90;;;;;;5096317;28;20257;-58
2021/01/09 22:26:40;;;;;;;43.80;21.80;;;1.70;99.90;;;;;;5096137;28;20252;-58
2021/01/09 22:29:07;;;;;;;48.17;23.20;;;1.70;99.90;;;;;;5096202;28;20289;-58
2021/01/09 22:31:36;;;;;;;41.63;20.63;;;1.70;99.90;;;;;;5078661;28;20692;-58
2021/01/09 22:34:03;;;;;;;73.63;35.40;;;1.80;99.90;;;;;;5056273;28;20270;-58
2021/01/09 22:36:29;;;;;;;54.85;25.25;;;1.80;99.90;;;;;;5055940;28;20270;-58
2021/01/09 22:38:54;;;;;;;46.57;22.33;;;1.90;99.90;;;;;;5055868;28;20388;-58
2021/01/09 22:41:22;;;;;;;52.53;23.33;;;1.90;99.90;;;;;;5056087;28;20029;-58
2021/01/09 22:43:48;;;;;;;46.00;22.20;;;1.80;99.90;;;;;;5057026;28;20078;-58
2021/01/09 22:46:14;;;;;;;44.50;22.33;;;1.90;99.90;;;;;;5058294;28;20319;-58
2021/01/09 22:48:39;;;;;;;40.07;19.00;;;1.90;99.90;;;;;;5059824;28;20695;-58
2021/01/09 22:51:05;;;;;;;39.65;18.55;;;1.90;99.90;;;;;;5059437;28;20366;-58
2021/01/09 22:53:31;;;;;;;44.87;19.20;;;1.90;99.90;;;;;;5060147;28;20065;-57
2021/01/09 22:55:57;;;;;;;43.57;19.47;;;1.90;99.90;;;;;;5059500;28;20041;-58
2021/01/09 22:58:22;;;;;;;41.30;21.67;;;1.90;99.90;;;;;;5059609;28;20415;-58
2021/01/09 23:00:48;;;;;;;42.65;18.95;;;2.00;99.90;;;;;;5060081;28;20040;-58
2021/01/09 23:03:14;;;;;;;37.93;18.93;;;2.00;99.90;;;;;;5059239;28;20429;-58
2021/01/09 23:05:39;;;;;;;40.60;20.03;;;2.10;99.90;;;;;;5059674;28;20068;-58
2021/01/09 23:08:06;;;;;;;31.63;17.23;;;2.10;99.90;;;;;;5059618;28;20056;-58
2021/01/09 23:10:31;;;;;;;36.57;17.30;;;2.00;99.90;;;;;;5059668;28;20025;-58
2021/01/09 23:12:57;;;;;;;34.07;15.83;;;2.00;99.90;;;;;;5059661;28;20262;-58
2021/01/09 23:15:23;;;;;;;28.03;15.03;;;2.00;99.90;;;;;;5059604;28;19952;-58
2021/01/09 23:17:49;;;;;;;37.13;17.73;;;2.00;99.90;;;;;;5059503;28;20040;-58
2021/01/09 23:20:19;;;;;;;38.65;18.10;;;2.00;99.90;;;;;;5059219;28;20264;-58
2021/01/09 23:22:46;;;;;;;35.80;18.13;;;2.00;99.90;;;;;;5059098;28;20283;-59
2021/01/09 23:25:17;;;;;;;35.57;16.20;;;2.00;99.90;;;;;;5059387;28;20290;-58
2021/01/09 23:27:43;;;;;;;35.23;16.27;;;2.10;99.90;;;;;;5059352;28;20254;-58
2021/01/09 23:30:38;;;;;;;29.13;14.77;;;2.00;99.90;;;;;;5059046;28;20211;-58
2021/01/09 23:33:05;;;;;;;34.43;16.27;;;2.10;99.90;;;;;;5058243;28;19916;-57
2021/01/09 23:35:39;;;;;;;35.10;16.17;;;2.00;99.90;;;;;;5064761;28;20060;-58
2021/01/09 23:38:17;;;;;;;37.40;16.57;;;2.00;99.90;;;;;;5079267;28;20056;-56
2021/01/09 23:40:44;;;;;;;32.27;15.80;;;2.00;99.90;;;;;;5078593;28;20342;-58
2021/01/09 23:43:12;;;;;;;31.20;16.20;;;2.10;99.90;;;;;;5079525;28;20418;-58
2021/01/09 23:45:38;;;;;;;35.87;17.07;;;2.10;99.90;;;;;;5078521;28;20296;-58
2021/01/09 23:48:04;;;;;;;32.50;15.60;;;2.10;99.90;;;;;;5079167;28;20659;-58
2021/01/09 23:50:30;;;;;;;30.47;15.07;;;2.00;99.90;;;;;;5078523;28;20055;-58
2021/01/09 23:52:55;;;;;;;34.35;17.55;;;2.00;99.90;;;;;;5078781;28;20144;-58
2021/01/09 23:55:21;;;;;;;37.23;16.77;;;2.00;99.90;;;;;;5078263;28;20080;-57
2021/01/09 23:57:47;;;;;;;35.57;16.50;;;2.00;99.90;;;;;;5078577;28;20358;-58
